Time;durP1;ratioP1;P1;durP2;ratioP2;P2;SDS_P1;SDS_P2;PMS_P1;PMS_P2;Temp;Humidity;BMP_temperature;BMP_pressure;BME280_temperature;BME280_humidity;BME280_pressure;Samples;Min_cycle;Max_cycle;Signal;HPM_P1;HPM_P2
2021/06/23 00:01:01;;;;;;;12.52;3.28;;;15.10;99.90;;;;;;5122424;27;20019;-45
2021/06/23 00:03:26;;;;;;;10.18;3.35;;;15.10;99.90;;;;;;5123195;27;20053;-45
2021/06/23 00:05:52;;;;;;;8.65;3.08;;;15.00;99.90;;;;;;5121900;27;20098;-45
2021/06/23 00:08:17;;;;;;;12.10;3.53;;;14.90;99.90;;;;;;5119454;27;20496;-45
2021/06/23 00:10:43;;;;;;;5.85;3.03;;;14.90;99.90;;;;;;5120194;27;20437;-44
2021/06/23 00:13:09;;;;;;;7.25;2.88;;;14.90;99.90;;;;;;5120320;27;20026;-48
2021/06/23 00:15:36;;;;;;;12.35;3.92;;;14.90;99.90;;;;;;5118278;27;20019;-47
2021/06/23 00:18:03;;;;;;;8.90;3.15;;;14.90;99.90;;;;;;5124600;27;20163;-45
2021/06/23 00:20:29;;;;;;;10.05;3.35;;;14.90;99.90;;;;;;5117500;27;20469;-45
2021/06/23 00:22:55;;;;;;;12.45;3.40;;;14.80;99.90;;;;;;5124351;27;20020;-44
2021/06/23 00:25:21;;;;;;;9.88;3.78;;;14.80;99.90;;;;;;5122985;27;20102;-45
2021/06/23 00:27:46;;;;;;;7.28;3.67;;;14.80;99.90;;;;;;5124734;27;20597;-45
2021/06/23 00:30:12;;;;;;;11.45;3.50;;;14.80;99.90;;;;;;5118454;27;20054;-45
2021/06/23 00:32:40;;;;;;;13.07;3.63;;;14.80;99.90;;;;;;5117489;27;20024;-44
2021/06/23 00:35:07;;;;;;;11.60;3.38;;;14.80;99.90;;;;;;5123901;27;20015;-44
2021/06/23 00:37:32;;;;;;;9.13;3.72;;;14.80;99.90;;;;;;5117404;27;20027;-44
2021/06/23 00:39:58;;;;;;;11.93;3.70;;;14.80;99.90;;;;;;5123835;27;20093;-44
2021/06/23 00:42:24;;;;;;;12.05;3.92;;;14.70;99.90;;;;;;5117298;27;20034;-44
2021/06/23 00:44:50;;;;;;;8.93;3.50;;;14.80;99.90;;;;;;5124403;27;20102;-45
2021/06/23 00:47:16;;;;;;;9.30;3.42;;;14.80;99.90;;;;;;5115969;27;20015;-46
2021/06/23 00:49:41;;;;;;;10.15;3.90;;;14.70;99.90;;;;;;5116694;27;20050;-46
2021/06/23 00:52:08;;;;;;;6.90;3.15;;;14.80;99.90;;;;;;5123732;27;20019;-47
2021/06/23 00:54:34;;;;;;;13.52;3.92;;;14.70;99.90;;;;;;5100560;27;20465;-48
2021/06/23 00:57:04;;;;;;;10.95;4.03;;;14.70;99.90;;;;;;5124470;27;20019;-48
2021/06/23 00:59:31;;;;;;;9.10;3.38;;;14.70;99.90;;;;;;5117164;27;20027;-47
2021/06/23 01:01:58;;;;;;;10.57;3.50;;;14.80;99.90;;;;;;5125276;27;20047;-45
2021/06/23 01:04:24;;;;;;;9.80;4.00;;;14.70;99.90;;;;;;5116959;27;20028;-45
2021/06/23 01:06:51;;;;;;;9.75;4.13;;;14.70;99.90;;;;;;5116947;27;20037;-45
2021/06/23 01:09:16;;;;;;;11.68;4.05;;;14.70;99.90;;;;;;5122991;27;20028;-47
2021/06/23 01:12:02;;;;;;;9.48;3.78;;;14.80;99.90;;;;;;5116322;27;20027;-46
2021/06/23 01:14:33;;;;;;;9.77;3.83;;;14.80;99.90;;;;;;5108399;27;20015;-44
2021/06/23 01:16:59;;;;;;;;;;;14.70;99.90;;;;;;5118601;27;20480;-46
2021/06/23 01:19:25;;;;;;;7.00;3.40;;;14.70;99.90;;;;;;5120319;27;20307;-46
2021/06/23 01:21:51;;;;;;;8.60;2.88;;;14.70;99.90;;;;;;5119597;27;20441;-44
2021/06/23 01:24:16;;;;;;;9.35;3.55;;;14.70;99.90;;;;;;5115100;27;20114;-46
2021/06/23 01:26:42;;;;;;;8.35;3.42;;;14.70;99.90;;;;;;5120827;27;20024;-46
2021/06/23 01:29:07;;;;;;;8.75;3.30;;;14.70;99.90;;;;;;5119463;28;20020;-45
2021/06/23 01:31:34;;;;;;;9.93;3.97;;;14.70;99.90;;;;;;5119070;28;20046;-46
2021/06/23 01:33:59;;;;;;;8.63;3.75;;;14.70;99.90;;;;;;5118205;28;20023;-46
2021/06/23 01:36:25;;;;;;;9.50;3.15;;;14.60;99.90;;;;;;5120578;28;20022;-45
2021/06/23 01:38:50;;;;;;;11.55;3.63;;;14.60;99.90;;;;;;5119465;28;20042;-47
2021/06/23 01:41:16;;;;;;;11.55;3.58;;;14.60;99.90;;;;;;5119012;28;20039;-46
2021/06/23 01:43:45;;;;;;;10.13;3.97;;;14.60;99.90;;;;;;5120604;28;20057;-45
2021/06/23 01:46:10;;;;;;;11.48;3.30;;;14.50;99.90;;;;;;5119741;28;20023;-45
2021/06/23 01:48:36;;;;;;;10.50;3.72;;;14.50;99.90;;;;;;5120571;28;20016;-46
2021/06/23 01:51:04;;;;;;;8.93;3.33;;;14.50;99.90;;;;;;5117488;28;20560;-45
2021/06/23 01:53:34;;;;;;;8.05;3.35;;;14.50;99.90;;;;;;5110703;28;20016;-44
2021/06/23 01:56:00;;;;;;;11.60;3.80;;;14.50;99.90;;;;;;5114278;27;20441;-43
2021/06/23 01:58:26;;;;;;;5.63;3.13;;;14.50;99.90;;;;;;5128045;27;20030;-44
2021/06/23 02:01:16;;;;;;;20.80;3.80;;;14.40;99.90;;;;;;5122487;27;20019;-44
2021/06/23 02:03:56;;;;;;;11.55;3.55;;;14.50;99.90;;;;;;5124384;27;20503;-46
2021/06/23 02:06:38;;;;;;;10.50;3.53;;;14.40;99.90;;;;;;5114472;27;20040;-45
2021/06/23 02:09:50;;;;;;;6.85;3.17;;;14.40;99.90;;;;;;5123949;27;20031;-45
2021/06/23 02:12:26;;;;;;;12.77;3.70;;;14.30;99.90;;;;;;5092514;27;20070;-45
2021/06/23 02:14:56;;;;;;;8.50;4.03;;;14.30;99.90;;;;;;5126779;27;20021;-45
2021/06/23 02:17:24;;;;;;;11.70;3.80;;;14.20;99.90;;;;;;5120034;27;20043;-44
2021/06/23 02:19:51;;;;;;;8.45;3.60;;;14.10;99.90;;;;;;5123029;27;20020;-45
2021/06/23 02:22:26;;;;;;;8.82;3.75;;;14.10;99.90;;;;;;5122303;27;20022;-44
2021/06/23 02:24:55;;;;;;;13.55;4.72;;;14.10;99.90;;;;;;5123294;27;20492;-44
2021/06/23 02:27:23;;;;;;;8.00;3.77;;;14.10;99.90;;;;;;5123706;27;20031;-46
2021/06/23 02:29:49;;;;;;;10.20;4.13;;;14.00;99.90;;;;;;5123136;27;20020;-45
2021/06/23 02:32:22;;;;;;;15.07;4.35;;;14.00;99.90;;;;;;5120856;27;20026;-45
2021/06/23 02:34:52;;;;;;;8.77;4.05;;;14.00;99.90;;;;;;5125564;27;20023;-46
2021/06/23 02:37:18;;;;;;;15.30;4.93;;;14.10;99.90;;;;;;5118990;27;20042;-45
2021/06/23 02:39:43;;;;;;;6.10;3.30;;;14.10;99.90;;;;;;5122196;27;20031;-44
2021/06/23 02:42:10;;;;;;;11.00;4.20;;;14.10;99.90;;;;;;5122887;27;20031;-44
2021/06/23 02:44:36;;;;;;;8.05;4.22;;;14.10;99.90;;;;;;5123464;27;20473;-46
2021/06/23 02:47:02;;;;;;;11.52;4.60;;;14.10;99.90;;;;;;5122542;27;20041;-45
2021/06/23 02:49:28;;;;;;;12.48;4.03;;;14.10;99.90;;;;;;5117732;27;20042;-45
2021/06/23 02:51:56;;;;;;;13.20;4.72;;;14.10;99.90;;;;;;5125678;27;20019;-44
2021/06/23 02:54:23;;;;;;;16.30;4.22;;;14.10;99.90;;;;;;5100807;27;20039;-45
2021/06/23 02:56:50;;;;;;;10.80;4.57;;;14.10;99.90;;;;;;5125788;27;20528;-46
2021/06/23 02:59:16;;;;;;;9.02;4.35;;;14.10;99.90;;;;;;5124692;27;20031;-44
2021/06/23 03:01:42;;;;;;;11.50;4.00;;;14.10;99.90;;;;;;5125820;27;20446;-44
2021/06/23 03:04:08;;;;;;;13.48;4.18;;;14.10;99.90;;;;;;5121329;27;20114;-44
2021/06/23 03:06:33;;;;;;;10.90;4.38;;;14.10;99.90;;;;;;5119308;27;20015;-44
2021/06/23 03:08:58;;;;;;;10.75;4.45;;;14.10;99.90;;;;;;5124478;27;20087;-45
2021/06/23 03:11:30;;;;;;;8.77;3.65;;;14.20;99.90;;;;;;5118446;27;20035;-44
2021/06/23 03:13:56;;;;;;;9.13;4.00;;;14.10;99.90;;;;;;5110568;27;20011;-45
2021/06/23 03:16:21;;;;;;;7.15;4.10;;;14.10;99.90;;;;;;5114871;27;20023;-45
2021/06/23 03:18:47;;;;;;;11.70;3.88;;;14.20;99.90;;;;;;5120659;27;20112;-45
2021/06/23 03:21:12;;;;;;;14.23;4.63;;;14.10;99.90;;;;;;5119589;27;20387;-44
2021/06/23 03:23:38;;;;;;;14.18;4.15;;;14.00;99.90;;;;;;5127459;27;20128;-44
2021/06/23 03:26:03;;;;;;;12.38;4.00;;;14.10;99.90;;;;;;5119090;27;20035;-45
2021/06/23 03:28:29;;;;;;;16.52;5.50;;;14.10;99.90;;;;;;5100636;27;20062;-45
2021/06/23 03:30:55;;;;;;;6.82;3.83;;;14.00;99.90;;;;;;5095275;27;20016;-45
2021/06/23 03:33:20;;;;;;;12.52;4.47;;;14.00;99.90;;;;;;5096752;27;20379;-45
2021/06/23 03:35:46;;;;;;;16.35;4.70;;;14.10;99.90;;;;;;5104739;27;20433;-44
2021/06/23 03:38:11;;;;;;;13.10;4.00;;;14.10;99.90;;;;;;5094971;27;20035;-44
2021/06/23 03:40:37;;;;;;;12.10;4.03;;;14.10;99.90;;;;;;5090069;27;20016;-44
2021/06/23 03:43:02;;;;;;;10.60;4.53;;;14.10;99.90;;;;;;5110641;27;20154;-45
2021/06/23 03:45:28;;;;;;;15.02;4.57;;;14.10;99.90;;;;;;5115213;27;20317;-45
2021/06/23 03:47:53;;;;;;;8.88;3.90;;;14.10;99.90;;;;;;5112373;27;20055;-46
2021/06/23 03:50:19;;;;;;;10.70;4.53;;;14.10;99.90;;;;;;5108197;27;20495;-44
2021/06/23 03:52:46;;;;;;;8.80;4.47;;;14.10;99.90;;;;;;5094451;27;20016;-45
2021/06/23 03:55:25;;;;;;;9.65;4.75;;;14.20;99.90;;;;;;5096938;27;20052;-45
2021/06/23 03:57:53;;;;;;;10.82;4.18;;;14.20;99.90;;;;;;5094480;27;20015;-45
2021/06/23 04:00:20;;;;;;;14.52;4.53;;;14.30;99.90;;;;;;5095700;27;20037;-44
2021/06/23 04:02:46;;;;;;;11.85;4.38;;;14.30;99.90;;;;;;5095033;27;20047;-44
2021/06/23 04:05:13;;;;;;;16.83;4.57;;;14.30;99.90;;;;;;5089152;28;20463;-48
2021/06/23 04:07:39;;;;;;;9.82;4.13;;;14.30;99.90;;;;;;5102438;27;20054;-45
2021/06/23 04:10:06;;;;;;;8.75;4.38;;;14.30;99.90;;;;;;5103486;27;20061;-43
2021/06/23 04:12:32;;;;;;;12.77;4.57;;;14.30;99.90;;;;;;5118588;27;20055;-44
2021/06/23 04:14:57;;;;;;;7.38;3.75;;;14.40;99.90;;;;;;5104828;27;20052;-44
2021/06/23 04:17:23;;;;;;;10.18;4.18;;;14.40;99.90;;;;;;5094419;27;20032;-46
2021/06/23 04:19:48;;;;;;;14.35;5.60;;;14.40;99.90;;;;;;5093609;27;20024;-44
2021/06/23 04:22:14;;;;;;;12.38;4.47;;;14.40;99.90;;;;;;5096433;27;20027;-45
2021/06/23 04:24:40;;;;;;;7.60;4.15;;;14.30;99.90;;;;;;5093988;27;20097;-44
2021/06/23 04:27:05;;;;;;;14.23;4.32;;;14.40;99.90;;;;;;5095766;27;20843;-46
2021/06/23 04:29:31;;;;;;;13.68;4.38;;;14.40;99.90;;;;;;5101572;27;20019;-44
2021/06/23 04:31:56;;;;;;;11.60;3.90;;;14.40;99.90;;;;;;5109082;27;20024;-45
2021/06/23 04:34:22;;;;;;;9.82;4.30;;;14.50;99.90;;;;;;5101903;27;20456;-44
2021/06/23 04:36:48;;;;;;;12.70;4.45;;;14.50;99.90;;;;;;5116424;27;20019;-44
2021/06/23 04:39:13;;;;;;;11.35;5.15;;;14.60;99.90;;;;;;5102135;27;20103;-43
2021/06/23 04:41:39;;;;;;;7.53;3.75;;;14.60;99.90;;;;;;5114517;27;20625;-45
2021/06/23 04:44:05;;;;;;;11.98;4.07;;;14.70;99.90;;;;;;5103680;27;20024;-45
2021/06/23 04:46:33;;;;;;;12.85;4.45;;;14.80;99.90;;;;;;5114847;27;20509;-46
2021/06/23 04:48:59;;;;;;;14.07;4.47;;;14.80;99.90;;;;;;5117070;27;20015;-44
2021/06/23 04:51:24;;;;;;;17.00;4.40;;;14.80;99.90;;;;;;5107456;27;20046;-45
2021/06/23 04:53:51;;;;;;;14.40;4.07;;;14.90;99.90;;;;;;5097851;27;20480;-47
2021/06/23 04:56:16;;;;;;;8.73;3.97;;;15.00;99.90;;;;;;5111970;27;20117;-45
2021/06/23 04:58:42;;;;;;;6.47;3.75;;;15.10;99.90;;;;;;5102529;27;20032;-47
2021/06/23 05:01:07;;;;;;;12.38;3.20;;;15.20;99.90;;;;;;5110672;27;20023;-45
2021/06/23 05:03:32;;;;;;;6.28;3.70;;;15.20;99.90;;;;;;5108263;27;20036;-44
2021/06/23 05:05:59;;;;;;;9.30;4.00;;;15.30;99.90;;;;;;5111184;27;20045;-45
2021/06/23 05:08:26;;;;;;;8.70;4.00;;;15.30;99.90;;;;;;5106297;27;20022;-45
2021/06/23 05:10:52;;;;;;;8.10;3.85;;;15.30;99.90;;;;;;5109497;27;20362;-44
2021/06/23 05:13:17;;;;;;;12.10;3.50;;;15.30;99.90;;;;;;5110122;27;20072;-45
2021/06/23 05:15:43;;;;;;;16.48;4.65;;;15.30;99.90;;;;;;5116831;27;20019;-45
2021/06/23 05:18:09;;;;;;;9.75;3.65;;;15.40;99.90;;;;;;5123127;27;20451;-44
2021/06/23 05:20:34;;;;;;;9.18;3.67;;;15.40;99.90;;;;;;5116089;27;20051;-45
2021/06/23 05:23:00;;;;;;;13.02;3.67;;;15.50;99.90;;;;;;5124234;27;20369;-44
2021/06/23 05:25:25;;;;;;;9.68;3.42;;;15.60;99.90;;;;;;5116812;27;20012;-45
2021/06/23 05:27:51;;;;;;;10.68;3.53;;;15.70;99.90;;;;;;5124226;28;20020;-47
2021/06/23 05:30:17;;;;;;;14.02;4.15;;;15.80;99.90;;;;;;5116705;28;20030;-45
2021/06/23 05:32:43;;;;;;;13.50;4.25;;;15.80;99.90;;;;;;5113573;27;20473;-45
2021/06/23 05:35:09;;;;;;;11.27;3.90;;;15.90;99.90;;;;;;5130116;27;20027;-45
2021/06/23 05:37:35;;;;;;;15.13;3.80;;;16.00;99.90;;;;;;5106173;27;20095;-44
2021/06/23 05:40:00;;;;;;;6.90;3.22;;;15.90;99.90;;;;;;5107974;27;20495;-44
2021/06/23 05:42:26;;;;;;;11.63;3.70;;;15.90;99.90;;;;;;5116404;27;20418;-44
2021/06/23 05:44:51;;;;;;;12.20;4.05;;;15.90;99.90;;;;;;5119563;27;20110;-44
2021/06/23 05:47:17;;;;;;;11.73;4.03;;;15.90;99.90;;;;;;5109016;27;20053;-45
2021/06/23 05:49:42;;;;;;;11.60;4.00;;;16.00;99.90;;;;;;5110852;27;20019;-45
2021/06/23 05:52:08;;;;;;;8.75;3.70;;;16.00;99.90;;;;;;5125719;27;20023;-44
2021/06/23 05:54:33;;;;;;;10.50;3.65;;;16.00;99.90;;;;;;5114328;27;20016;-45
2021/06/23 05:56:59;;;;;;;5.68;3.50;;;16.10;99.90;;;;;;5106927;27;20143;-44
2021/06/23 05:59:25;;;;;;;9.52;3.85;;;16.10;99.90;;;;;;5109942;27;20410;-44
2021/06/23 06:01:50;;;;;;;12.52;3.75;;;16.00;99.90;;;;;;5110755;27;20039;-45
2021/06/23 06:04:16;;;;;;;10.35;3.42;;;16.10;99.90;;;;;;5104303;27;20520;-44
2021/06/23 06:06:41;;;;;;;11.48;3.42;;;16.10;99.90;;;;;;5104673;27;20032;-44
2021/06/23 06:09:07;;;;;;;13.43;3.63;;;16.20;99.90;;;;;;5104360;27;20102;-43
2021/06/23 06:11:33;;;;;;;12.50;3.30;;;16.30;99.90;;;;;;5105727;27;20031;-44
2021/06/23 06:13:58;;;;;;;10.18;2.65;;;16.40;99.90;;;;;;5107781;27;20479;-45
2021/06/23 06:16:24;;;;;;;9.05;2.15;;;16.50;99.90;;;;;;5109585;27;20660;-44
2021/06/23 06:18:49;;;;;;;7.68;2.70;;;16.50;99.90;;;;;;5105454;27;20046;-45
2021/06/23 06:21:15;;;;;;;12.02;2.85;;;16.50;99.90;;;;;;5103086;27;20031;-45
2021/06/23 06:23:42;;;;;;;13.20;3.45;;;16.40;99.90;;;;;;5086977;28;20052;-46
2021/06/23 06:26:07;;;;;;;12.88;3.55;;;16.40;99.90;;;;;;5091100;28;20032;-45
2021/06/23 06:28:35;;;;;;;11.32;3.30;;;16.40;99.90;;;;;;5083636;28;20032;-46
2021/06/23 06:31:00;;;;;;;13.23;3.38;;;16.40;99.90;;;;;;5089148;28;20439;-44
2021/06/23 06:33:26;;;;;;;9.77;3.42;;;16.30;99.90;;;;;;5082897;28;20269;-44
2021/06/23 06:35:51;;;;;;;10.95;3.33;;;16.30;99.90;;;;;;5078389;28;20025;-44
2021/06/23 06:38:17;;;;;;;11.07;3.00;;;16.30;99.90;;;;;;5078084;28;20031;-43
2021/06/23 06:40:44;;;;;;;11.35;3.92;;;16.30;99.90;;;;;;5081646;28;20032;-44
2021/06/23 06:43:11;;;;;;;9.02;3.20;;;16.30;99.90;;;;;;5087791;28;20035;-44
2021/06/23 06:45:36;;;;;;;11.15;3.28;;;16.30;99.90;;;;;;5078292;28;20013;-44
2021/06/23 06:48:02;;;;;;;7.93;3.15;;;16.30;99.90;;;;;;5082852;28;20537;-44
2021/06/23 06:50:28;;;;;;;11.55;3.45;;;16.30;99.90;;;;;;5082911;28;20479;-45
2021/06/23 06:52:53;;;;;;;11.73;3.15;;;16.30;99.90;;;;;;5078634;28;20042;-44
2021/06/23 06:55:22;;;;;;;13.25;3.42;;;16.30;99.90;;;;;;5083166;28;20032;-44
2021/06/23 06:57:49;;;;;;;8.15;2.95;;;16.30;99.90;;;;;;5077684;28;20481;-45
2021/06/23 07:00:15;;;;;;;10.55;3.15;;;16.30;99.90;;;;;;5081494;28;20060;-44
2021/06/23 07:02:41;;;;;;;8.93;2.88;;;16.40;99.90;;;;;;5070800;28;20024;-44
2021/06/23 07:05:07;;;;;;;10.57;3.45;;;16.40;99.90;;;;;;5074039;28;20653;-45
2021/06/23 07:07:32;;;;;;;15.32;3.60;;;16.40;99.90;;;;;;5073179;28;20053;-45
2021/06/23 07:09:58;;;;;;;11.13;3.35;;;16.40;99.90;;;;;;5071656;28;20020;-45
2021/06/23 07:12:23;;;;;;;8.57;3.28;;;16.50;99.90;;;;;;5072116;28;20125;-45
2021/06/23 07:14:49;;;;;;;8.00;3.17;;;16.50;99.90;;;;;;5075258;28;20028;-47
2021/06/23 07:17:14;;;;;;;12.27;3.53;;;16.30;99.90;;;;;;5072542;28;20508;-45
2021/06/23 07:19:40;;;;;;;10.80;3.70;;;16.40;99.90;;;;;;5074681;28;20036;-44
2021/06/23 07:22:05;;;;;;;10.90;3.42;;;16.40;99.90;;;;;;5073441;28;20028;-45
2021/06/23 07:24:31;;;;;;;10.60;3.38;;;16.40;99.90;;;;;;5073115;28;20036;-45
2021/06/23 07:26:59;;;;;;;11.98;3.90;;;16.50;99.90;;;;;;5076998;28;20085;-44
2021/06/23 07:29:27;;;;;;;9.82;3.70;;;16.50;99.90;;;;;;5072251;28;20102;-46
2021/06/23 07:31:57;;;;;;;9.80;3.50;;;16.50;99.90;;;;;;5078658;28;20024;-47
2021/06/23 07:37:08;;;;;;;8.73;3.42;;;16.60;99.90;;;;;;5081246;28;20050;-44
2021/06/23 07:39:35;;;;;;;10.68;3.40;;;16.70;99.90;;;;;;5072349;28;20036;-44
2021/06/23 07:42:02;;;;;;;7.93;2.80;;;16.50;99.90;;;;;;5070640;28;20025;-45
2021/06/23 07:44:34;;;;;;;7.28;3.00;;;16.60;99.90;;;;;;5084929;27;20020;-45
2021/06/23 07:47:02;;;;;;;9.32;3.03;;;16.70;99.90;;;;;;5087275;28;20027;-45
2021/06/23 07:49:29;;;;;;;14.63;3.55;;;16.80;99.90;;;;;;5078731;28;20101;-44
2021/06/23 07:54:48;;;;;;;17.52;3.13;;;16.90;99.90;;;;;;5083708;28;20036;-44
2021/06/23 08:10:42;;;;;;;13.30;3.90;;;17.30;99.90;;;;;;5090385;28;20098;-42
2021/06/23 08:13:08;;;;;;;10.93;3.80;;;17.40;99.90;;;;;;5087470;28;20028;-44
2021/06/23 08:15:37;;;;;;;8.50;3.20;;;17.50;99.90;;;;;;5085981;28;20020;-47
2021/06/23 08:18:03;;;;;;;7.60;3.00;;;17.60;99.90;;;;;;5090472;28;20029;-46
2021/06/23 08:20:29;;;;;;;9.98;3.67;;;17.50;99.90;;;;;;5087742;28;20107;-43
2021/06/23 08:22:55;;;;;;;9.45;3.22;;;17.90;99.90;;;;;;5087039;28;20167;-44
2021/06/23 08:25:21;;;;;;;10.02;4.00;;;18.20;99.90;;;;;;5090727;28;20051;-44
2021/06/23 08:27:48;;;;;;;11.30;3.72;;;18.40;99.90;;;;;;5087126;28;20628;-46
2021/06/23 08:30:14;;;;;;;9.88;4.15;;;18.40;98.60;;;;;;5089972;28;20054;-45
2021/06/23 08:32:40;;;;;;;10.73;3.85;;;18.30;99.80;;;;;;5082030;28;20571;-44
2021/06/23 08:35:08;;;;;;;12.07;3.65;;;18.50;99.30;;;;;;5087256;28;20096;-46
2021/06/23 08:37:35;;;;;;;10.38;3.00;;;18.40;99.60;;;;;;5086063;28;20064;-45
2021/06/23 08:40:01;;;;;;;10.10;3.25;;;18.50;99.30;;;;;;5092202;28;20027;-45
2021/06/23 08:42:27;;;;;;;13.65;3.78;;;18.60;99.10;;;;;;5090977;28;20107;-44
2021/06/23 08:44:53;;;;;;;8.00;2.83;;;18.70;99.90;;;;;;5098967;28;20049;-44
2021/06/23 08:47:18;;;;;;;6.53;3.08;;;18.80;99.90;;;;;;5094685;28;20023;-46
2021/06/23 08:49:47;;;;;;;6.30;2.83;;;18.90;99.60;;;;;;5076263;28;20066;-43
2021/06/23 08:52:13;;;;;;;6.45;2.85;;;19.00;98.80;;;;;;5073800;28;20029;-44
2021/06/23 08:54:42;;;;;;;10.20;3.78;;;19.10;98.60;;;;;;5073229;28;20107;-45
2021/06/23 08:57:09;;;;;;;7.65;3.38;;;19.40;97.40;;;;;;5072311;28;20059;-43
2021/06/23 08:59:35;;;;;;;12.23;3.60;;;19.50;97.40;;;;;;5072504;28;20020;-47
2021/06/23 09:02:01;;;;;;;10.32;3.22;;;19.60;97.90;;;;;;5088340;28;20122;-45
2021/06/23 09:04:27;;;;;;;11.27;3.75;;;20.00;97.70;;;;;;5083344;28;20123;-47
2021/06/23 09:06:58;;;;;;;11.65;3.40;;;19.90;96.70;;;;;;5078264;28;20024;-45
2021/06/23 09:09:37;;;;;;;9.63;3.35;;;19.80;96.20;;;;;;5080009;28;20020;-44
2021/06/23 09:12:07;;;;;;;9.60;3.63;;;19.90;97.70;;;;;;5078084;28;20646;-45
2021/06/23 09:14:41;;;;;;;12.10;3.22;;;20.00;97.50;;;;;;5075629;28;20478;-45
2021/06/23 09:17:16;;;;;;;10.32;3.30;;;20.00;96.70;;;;;;5085930;28;20040;-45
2021/06/23 09:19:43;;;;;;;8.88;3.25;;;20.10;97.20;;;;;;5085025;28;20059;-44
2021/06/23 09:22:32;;;;;;;7.70;3.63;;;20.20;96.00;;;;;;5075929;28;20065;-46
2021/06/23 09:24:59;;;;;;;9.55;3.90;;;20.10;96.10;;;;;;5091885;28;20458;-47
2021/06/23 09:27:27;;;;;;;9.77;3.38;;;20.30;96.50;;;;;;5085492;28;20024;-44
2021/06/23 09:29:53;;;;;;;11.23;3.75;;;20.40;95.20;;;;;;5094586;28;20025;-46
2021/06/23 09:32:20;;;;;;;11.40;3.75;;;20.50;95.70;;;;;;5069575;28;20031;-44
2021/06/23 09:34:48;;;;;;;13.93;3.67;;;20.90;94.80;;;;;;5075913;28;20086;-44
2021/06/23 09:37:31;;;;;;;13.07;3.70;;;21.00;94.50;;;;;;5073454;28;20020;-44
2021/06/23 09:40:19;;;;;;;8.00;3.53;;;21.20;93.70;;;;;;5084461;28;20039;-44
2021/06/23 09:42:54;;;;;;;13.10;3.67;;;21.00;93.40;;;;;;5078387;28;20017;-45
2021/06/23 09:45:20;;;;;;;8.85;3.17;;;20.80;93.40;;;;;;5098608;28;20050;-46
2021/06/23 09:47:47;;;;;;;9.30;3.88;;;20.70;93.70;;;;;;5083230;28;20048;-44
2021/06/23 09:50:27;;;;;;;7.50;3.80;;;20.60;94.20;;;;;;5091981;28;20504;-44
2021/06/23 09:53:14;;;;;;;11.98;3.97;;;20.40;94.00;;;;;;5088503;28;20021;-45
2021/06/23 09:55:47;;;;;;;9.00;3.45;;;20.00;93.10;;;;;;5081346;28;20385;-44
2021/06/23 09:58:14;;;;;;;11.75;4.20;;;19.70;95.00;;;;;;5087585;28;20327;-43
2021/06/23 10:00:59;;;;;;;9.23;3.28;;;19.50;94.90;;;;;;5082572;28;20587;-46
2021/06/23 10:03:26;;;;;;;9.45;3.63;;;19.70;95.20;;;;;;5091679;28;20038;-44
2021/06/23 10:05:52;;;;;;;7.32;3.47;;;19.70;95.00;;;;;;5092364;28;20024;-44
2021/06/23 10:08:27;;;;;;;14.98;4.03;;;19.80;95.70;;;;;;5088676;28;20058;-46
2021/06/23 10:10:53;;;;;;;10.75;3.50;;;19.90;94.30;;;;;;5087063;28;20384;-44
2021/06/23 10:13:19;;;;;;;11.20;3.97;;;20.30;95.30;;;;;;5105340;28;20415;-47
2021/06/23 10:15:47;;;;;;;14.10;4.18;;;20.80;92.90;;;;;;5091454;28;20615;-43
2021/06/23 10:18:14;;;;;;;8.85;3.60;;;21.10;94.00;;;;;;5095496;28;20031;-43
2021/06/23 10:20:40;;;;;;;9.98;3.95;;;21.30;92.40;;;;;;5084710;28;20485;-43
2021/06/23 10:23:06;;;;;;;8.77;3.70;;;21.30;92.60;;;;;;5108502;28;20031;-43
2021/06/23 10:25:32;;;;;;;10.90;3.45;;;21.10;91.70;;;;;;5102334;28;20031;-42
2021/06/23 10:27:59;;;;;;;12.02;3.53;;;21.00;92.00;;;;;;5107255;28;20028;-42
2021/06/23 10:30:30;;;;;;;11.40;3.20;;;21.10;91.70;;;;;;5090849;28;20465;-42
2021/06/23 10:32:56;;;;;;;;;;;21.20;91.50;;;;;;5100274;28;20073;-41
2021/06/23 10:35:22;;;;;;;9.98;3.95;;;21.20;91.10;;;;;;5093091;28;19915;-41
2021/06/23 10:37:50;;;;;;;11.93;3.92;;;21.20;90.90;;;;;;5099956;28;20495;-41
2021/06/23 10:40:16;;;;;;;8.75;3.80;;;21.50;91.50;;;;;;5096249;28;20555;-43
2021/06/23 10:42:43;;;;;;;7.78;3.45;;;22.30;90.90;;;;;;5103428;28;20239;-43
2021/06/23 10:45:10;;;;;;;10.95;4.22;;;22.80;89.30;;;;;;5092547;28;20035;-42
2021/06/23 10:47:42;;;;;;;9.23;4.10;;;23.50;85.50;;;;;;5088692;28;20020;-42
2021/06/23 10:50:09;;;;;;;9.02;3.38;;;23.80;82.00;;;;;;5084199;28;20135;-43
2021/06/23 10:52:37;;;;;;;7.32;3.42;;;24.20;81.50;;;;;;5091090;28;20031;-44
2021/06/23 10:55:28;;;;;;;8.80;3.75;;;25.40;77.10;;;;;;5074552;28;20613;-43
2021/06/23 10:58:03;;;;;;;9.63;3.50;;;26.60;76.60;;;;;;5077141;28;20239;-43
2021/06/23 11:00:32;;;;;;;16.83;4.32;;;27.70;70.90;;;;;;5081557;28;20120;-44
2021/06/23 11:03:29;;;;;;;8.60;3.55;;;28.00;63.50;;;;;;5084276;28;20016;-44
2021/06/23 11:05:55;;;;;;;8.73;3.00;;;28.70;63.60;;;;;;5059974;28;20467;-43
2021/06/23 11:08:22;;;;;;;5.50;2.70;;;29.00;61.40;;;;;;5081153;28;20028;-45
2021/06/23 11:10:48;;;;;;;8.13;3.00;;;28.40;60.90;;;;;;5080798;28;20028;-41
2021/06/23 11:13:23;;;;;;;8.98;3.35;;;28.20;63.20;;;;;;5085456;28;20143;-43
2021/06/23 11:15:50;;;;;;;7.95;3.85;;;28.00;61.80;;;;;;5081825;28;20016;-42
2021/06/23 11:18:22;;;;;;;7.53;3.30;;;27.40;60.70;;;;;;5082801;28;20017;-42
2021/06/23 11:20:53;;;;;;;10.77;4.18;;;26.90;62.40;;;;;;5083982;28;20016;-43
2021/06/23 11:23:42;;;;;;;6.97;3.92;;;26.20;65.20;;;;;;5083226;28;20023;-43
2021/06/23 11:26:29;;;;;;;9.25;4.07;;;26.20;65.60;;;;;;5081302;28;20075;-43
2021/06/23 11:29:09;;;;;;;13.02;3.80;;;26.20;65.20;;;;;;5082446;28;20035;-43
2021/06/23 11:31:50;;;;;;;12.82;3.80;;;26.00;67.90;;;;;;5082535;28;20031;-43
2021/06/23 11:34:37;;;;;;;12.82;3.83;;;25.90;67.50;;;;;;5083682;28;20049;-43
2021/06/23 11:37:05;;;;;;;10.43;4.18;;;25.60;68.60;;;;;;5082763;28;20031;-43
2021/06/23 11:39:31;;;;;;;9.95;3.90;;;25.60;65.70;;;;;;5085487;28;20020;-43
2021/06/23 11:41:56;;;;;;;12.57;4.40;;;25.10;68.10;;;;;;5096450;28;20023;-42
2021/06/23 11:44:22;;;;;;;16.38;4.95;;;24.90;67.50;;;;;;5083603;28;20043;-42
2021/06/23 11:46:47;;;;;;;11.85;4.10;;;24.90;65.10;;;;;;5077758;28;20032;-42
2021/06/23 11:49:13;;;;;;;10.60;3.85;;;24.40;68.50;;;;;;5086333;28;20017;-42
2021/06/23 11:51:39;;;;;;;14.38;4.00;;;24.30;71.70;;;;;;5086232;28;20028;-42
2021/06/23 11:54:05;;;;;;;11.68;4.72;;;23.90;68.90;;;;;;5090911;28;20052;-43
2021/06/23 11:56:31;;;;;;;10.35;4.70;;;23.70;69.20;;;;;;5084757;28;20020;-43
2021/06/23 11:58:56;;;;;;;8.20;4.57;;;23.80;69.50;;;;;;5090350;28;20026;-43
2021/06/23 12:01:22;;;;;;;9.57;3.80;;;24.50;68.90;;;;;;5085022;28;20035;-42
2021/06/23 12:03:49;;;;;;;16.13;4.18;;;24.70;69.00;;;;;;5095083;28;20042;-42
2021/06/23 12:06:34;;;;;;;10.70;4.25;;;25.60;67.30;;;;;;5080078;28;20484;-43
2021/06/23 12:09:00;;;;;;;10.07;3.72;;;25.80;66.90;;;;;;5045221;28;20092;-42
2021/06/23 12:11:25;;;;;;;11.75;4.35;;;25.70;67.70;;;;;;5049612;28;20178;-42
2021/06/23 12:13:51;;;;;;;8.50;3.65;;;25.20;66.90;;;;;;5075455;28;20039;-43
2021/06/23 12:16:16;;;;;;;15.13;4.55;;;25.20;65.50;;;;;;5085257;28;20044;-42
2021/06/23 12:18:42;;;;;;;10.85;4.43;;;24.10;68.50;;;;;;5086094;28;20477;-42
2021/06/23 12:21:07;;;;;;;13.38;5.10;;;23.30;70.50;;;;;;5076151;28;20047;-42
2021/06/23 12:23:35;;;;;;;11.45;4.53;;;23.30;74.40;;;;;;5090778;28;20043;-41
2021/06/23 12:26:00;;;;;;;9.93;4.40;;;23.00;72.00;;;;;;5077446;28;20416;-41
2021/06/23 12:28:26;;;;;;;10.25;4.63;;;23.20;72.00;;;;;;5094105;28;20019;-42
2021/06/23 12:30:52;;;;;;;15.05;4.95;;;23.40;73.70;;;;;;5075222;28;20077;-42
2021/06/23 12:33:17;;;;;;;11.77;3.83;;;23.80;72.30;;;;;;5084228;28;20019;-43
2021/06/23 12:35:45;;;;;;;10.88;3.80;;;24.00;72.10;;;;;;5096031;28;20116;-43
2021/06/23 12:38:14;;;;;;;14.32;4.15;;;24.10;72.70;;;;;;5087222;28;20047;-43
2021/06/23 12:40:41;;;;;;;8.88;4.55;;;24.30;70.50;;;;;;5079838;28;20039;-43
2021/06/23 12:43:10;;;;;;;10.13;4.13;;;24.10;70.70;;;;;;5085648;28;20105;-43
2021/06/23 12:45:36;;;;;;;13.25;5.20;;;24.10;70.80;;;;;;5093500;28;20017;-42
2021/06/23 12:48:05;;;;;;;6.68;3.80;;;24.30;69.10;;;;;;5084495;28;20036;-43
2021/06/23 12:50:31;;;;;;;9.20;4.40;;;23.80;73.20;;;;;;5077130;28;20563;-43
2021/06/23 12:52:57;;;;;;;9.93;4.82;;;24.30;72.20;;;;;;5075772;28;20133;-43
2021/06/23 12:55:23;;;;;;;13.73;5.15;;;24.30;72.60;;;;;;5077076;28;20032;-43
2021/06/23 12:57:48;;;;;;;14.32;4.32;;;24.10;73.70;;;;;;5074992;28;20121;-42
2021/06/23 13:00:15;;;;;;;8.68;4.20;;;24.20;71.70;;;;;;5079174;28;20029;-43
2021/06/23 13:02:41;;;;;;;12.15;4.28;;;24.20;71.10;;;;;;5075876;28;20519;-43